Terminal Aerodrome Forecast
Issued by NWS

Home | Current Version | Previous Version | Text Only | Print | Product List | Glossary Off
Versions: 1 2 3 4 5 6 7 8 9 10 11 12 13 14 15 16 17 18 19 20 21 22 23 24

000
FTUS43 KDDC 211005 AAA
TAFGCK
TAF AMD
KGCK 211005Z 2110/2206 11007KT P6SM SKC
      TEMPO 2112/2115 1/4SM FG VV002
     FM211600 16014KT P6SM SCT030=

USA.gov is the U.S. government's official web portal to all federal, state and local government web resources and services.